Historyczne dane pomiarowe

Dodano dane terminowe – wersja testowa.

Dane z okresu 1951-2019

Wersja bazy: 1.34 [2019-03-16, lista zmian], aktualizacja planowana na 2019-04-15

Dane meteo z obszaru Polski uzyskane na podstawie danych udostępnionych przez Instytut Meteorologii i Gospodarki Wodnej – Państwowy Instytut Badawczy.

 

Wybierz Datę:    

       

TemperaturaWilgotnośćZachmurzenieWiatrCiśnienieWidzialnośćZjawiska
 Data    tng td wb rh cc ccl cl cm ch dir g1 g2 mslp ppp      
1999-07-22 00:00:00 18.6--- 10.6 14.060wxwx3wx--1011.9 989.4 0.0---wx
1999-07-22 01:00:00 17.9--- 10.4 13.662wxwx2wx--1012.2 989.6----wx
1999-07-22 02:00:00 17.0--- 9.5 12.861wxwxwx3wx--1012.6 989.9----wx
1999-07-22 03:00:00 15.9--- 8.8 12.063wxwxwx3wx--1012.8 990.0----wx
1999-07-22 04:00:00 15.1--- 7.9 11.262wxwxwxwx3wx--1013.4 990.6----wx
1999-07-22 05:00:00 15.5--- 7.9 11.461wxwxwxwx3wx--1013.5 990.7----wx
1999-07-22 06:00:00 16.1--- 9.3 12.364wxwxwx3wx--1013.8 991.0 0.0---wx
1999-07-22 07:00:00 17.0--- 8.2 12.256wxwxwxwx3wx--1013.8 991.1----wx
1999-07-22 08:00:00 17.8--- 8.8 12.856wxwxwxwx4wx--1013.7 991.1----wx
1999-07-22 09:00:00 18.5--- 6.8 12.246wxwxwxwx5wx--1013.6 991.0----wx
1999-07-22 10:00:00 18.6--- 6.7 12.246wxwxwxwx4wx--1013.4 990.8----wx
1999-07-22 11:00:00 19.1--- 7.1 12.646wxwxwxwx4wx--1013.3 990.8----wx
1999-07-22 12:00:00 19.0--- 8.2 13.049wxwxwxwx4wx--1013.0 990.5 0.0---wx
1999-07-22 13:00:00 19.6--- 7.6 13.046wxwxwxwxwx4wx--1012.8 990.3----wx
1999-07-22 14:00:00 19.8--- 7.6 13.145wxwxwxwx3wx--1012.3 989.9----wx
1999-07-22 15:00:00 20.6--- 6.6 13.040wxwxwxwx4wx--1012.0 989.6----wx
1999-07-22 16:00:00 20.2--- 7.5 13.244wxwxwxwx3wx--1012.0 989.6----wx
1999-07-22 17:00:00 19.8--- 7.4 13.045wxwxwxwxwx3wx--1011.7 989.3----wx
1999-07-22 18:00:00 19.2--- 8.2 13.149wxwxwxwx2wx--1012.1 989.6 0.0---wx
1999-07-22 19:00:00 18.2--- 8.7 12.954wxwxwxwx2wx--1012.3 989.7----wx
1999-07-22 20:00:00 17.0--- 8.7 12.458wxwxwxwx2wx--1012.9 990.2----wx
1999-07-22 21:00:00 15.7--- 9.2 12.165wxwxwx2wx--1012.9 990.1----wx
1999-07-22 22:00:00 16.4--- 8.4 12.059wxwxwx2wx--1013.1 990.4----wx
1999-07-22 23:00:00 16.9--- 7.7 11.955wxwxwx3wx--1013.1 990.4----wx

 

Źródłem pochodzenia danych jest Instytut Meteorologii i Gospodarki Wodnej – Państwowy Instytut Badawczy. Dane Instytutu Meteorologii i Gospodarki Wodnej – Państwowego Instytutu Badawczego zostały przetworzone.

Dane źródłowe można odnaleźć na stronie https://dane.imgw.pl